createdAt,value
2022-08-23T00:01:33.111Z,19.00
2022-08-23T00:04:07.786Z,19.00
2022-08-23T00:06:35.492Z,19.00
2022-08-23T00:09:02.525Z,19.00
2022-08-23T00:11:34.028Z,19.00
2022-08-23T00:14:06.239Z,19.00
2022-08-23T00:16:33.151Z,18.90
2022-08-23T00:19:00.320Z,18.90
2022-08-23T00:21:29.164Z,18.90
2022-08-23T00:23:56.585Z,18.90
2022-08-23T00:26:23.537Z,18.90
2022-08-23T00:28:50.414Z,18.80
2022-08-23T00:31:18.710Z,18.70
2022-08-23T00:33:45.867Z,18.70
2022-08-23T00:36:12.682Z,18.70
2022-08-23T00:38:39.612Z,18.70
2022-08-23T00:41:06.721Z,18.60
2022-08-23T00:43:59.394Z,18.60
2022-08-23T00:46:50.769Z,18.50
2022-08-23T00:49:18.238Z,18.50
2022-08-23T00:52:10.707Z,18.40
2022-08-23T00:54:41.782Z,18.30
2022-08-23T00:57:12.833Z,18.20
2022-08-23T00:59:39.985Z,18.20
2022-08-23T01:02:08.028Z,18.10
2022-08-23T01:04:41.175Z,18.10
2022-08-23T01:07:12.260Z,18.00
2022-08-23T01:09:41.191Z,18.00
2022-08-23T01:12:33.019Z,17.90
2022-08-23T01:15:18.836Z,17.90
2022-08-23T01:17:56.427Z,17.90
2022-08-23T01:20:27.061Z,17.90
2022-08-23T01:23:06.563Z,17.80
2022-08-23T01:25:34.684Z,17.80
2022-08-23T01:28:01.546Z,17.70
2022-08-23T01:30:32.524Z,17.70
2022-08-23T01:33:02.899Z,17.70
2022-08-23T01:35:53.433Z,17.70
2022-08-23T01:38:21.238Z,17.70
2022-08-23T01:40:49.139Z,17.60
2022-08-23T01:43:19.698Z,17.60
2022-08-23T01:45:48.825Z,17.50
2022-08-23T01:48:18.457Z,17.50
2022-08-23T01:50:45.308Z,17.50
2022-08-23T01:53:13.902Z,17.40
2022-08-23T01:55:45.743Z,17.50
2022-08-23T01:58:12.900Z,17.40
2022-08-23T02:00:42.360Z,17.40
2022-08-23T02:03:12.498Z,17.40
2022-08-23T02:05:43.399Z,17.30
2022-08-23T02:08:30.189Z,17.30
2022-08-23T02:10:59.195Z,17.30
2022-08-23T02:13:27.059Z,17.30
2022-08-23T02:15:55.091Z,17.30
2022-08-23T02:18:23.343Z,17.20
2022-08-23T02:20:52.095Z,17.20
2022-08-23T02:23:20.669Z,17.20
2022-08-23T02:25:47.476Z,17.10
2022-08-23T02:28:14.784Z,17.10
2022-08-23T02:30:41.630Z,17.10
2022-08-23T02:33:10.107Z,17.00
2022-08-23T02:35:37.894Z,17.00
2022-08-23T02:38:07.293Z,17.00
2022-08-23T02:40:35.631Z,17.00
2022-08-23T02:43:03.637Z,16.90
2022-08-23T02:45:31.430Z,16.90
2022-08-23T02:48:00.039Z,16.90
2022-08-23T02:50:34.118Z,16.90
2022-08-23T02:53:00.941Z,16.90
2022-08-23T02:55:28.998Z,16.80
2022-08-23T02:57:56.033Z,16.80
2022-08-23T03:00:24.091Z,16.80
2022-08-23T03:02:51.392Z,16.80
2022-08-23T03:05:18.627Z,16.80
2022-08-23T03:07:45.928Z,16.80
2022-08-23T03:10:13.581Z,16.80
2022-08-23T03:12:46.777Z,16.80
2022-08-23T03:15:14.195Z,16.70
2022-08-23T03:17:42.155Z,16.70
2022-08-23T03:20:10.531Z,16.70
2022-08-23T03:22:37.819Z,16.60
2022-08-23T03:25:06.113Z,16.60
2022-08-23T03:27:45.708Z,16.60
2022-08-23T03:30:19.250Z,16.50
2022-08-23T03:32:52.094Z,16.50
2022-08-23T03:35:19.338Z,16.40
2022-08-23T03:37:46.376Z,16.40
2022-08-23T03:40:14.345Z,16.40
2022-08-23T03:42:41.211Z,16.30
2022-08-23T03:45:08.447Z,16.30
2022-08-23T03:47:35.914Z,16.30
2022-08-23T03:50:02.668Z,16.30
2022-08-23T03:52:30.152Z,16.20
2022-08-23T03:54:58.310Z,16.20
2022-08-23T03:57:27.458Z,16.20
2022-08-23T03:59:54.472Z,16.20
2022-08-23T04:02:21.759Z,16.10
2022-08-23T04:04:48.864Z,16.10
2022-08-23T04:07:36.156Z,16.10
2022-08-23T04:10:03.410Z,16.00
2022-08-23T04:12:35.948Z,16.00
2022-08-23T04:15:04.756Z,16.00
2022-08-23T04:17:36.524Z,16.00
2022-08-23T04:20:06.020Z,16.00
2022-08-23T04:22:37.055Z,15.90
2022-08-23T04:25:05.210Z,15.90
2022-08-23T04:27:49.990Z,15.90
2022-08-23T04:30:19.967Z,15.90
2022-08-23T04:32:48.589Z,15.80
2022-08-23T04:35:16.583Z,15.80
2022-08-23T04:37:43.683Z,15.80
2022-08-23T04:40:30.334Z,15.80
2022-08-23T04:42:58.197Z,15.80
2022-08-23T04:45:27.099Z,15.80
2022-08-23T04:47:54.408Z,15.80
2022-08-23T04:50:22.008Z,15.80
2022-08-23T04:53:13.548Z,15.80
2022-08-23T04:55:52.396Z,15.80
2022-08-23T04:58:19.773Z,15.80
2022-08-23T05:00:51.875Z,15.80
2022-08-23T05:03:23.799Z,15.80
2022-08-23T05:05:53.135Z,15.80
2022-08-23T05:08:23.342Z,15.80
2022-08-23T05:10:51.083Z,15.80
2022-08-23T05:13:18.424Z,15.80
2022-08-23T05:15:45.593Z,15.90
2022-08-23T05:18:13.011Z,15.90
2022-08-23T05:20:41.199Z,15.90
2022-08-23T05:23:08.209Z,16.00
2022-08-23T05:25:49.518Z,16.00
2022-08-23T05:28:34.794Z,16.00
2022-08-23T05:31:06.951Z,16.00
2022-08-23T05:33:49.240Z,16.10
2022-08-23T05:36:22.138Z,16.10
2022-08-23T05:38:49.609Z,16.20
2022-08-23T05:41:17.320Z,16.20
2022-08-23T05:43:47.442Z,16.30
2022-08-23T05:46:18.323Z,16.30
2022-08-23T05:48:54.767Z,16.30
2022-08-23T05:51:27.291Z,16.40
2022-08-23T05:53:57.605Z,16.40
2022-08-23T05:56:27.777Z,16.50
2022-08-23T05:58:59.991Z,16.50
2022-08-23T06:01:29.698Z,16.60
2022-08-23T06:04:00.744Z,16.60
2022-08-23T06:06:37.183Z,16.70
2022-08-23T06:09:07.982Z,16.70
2022-08-23T06:11:38.215Z,16.80
2022-08-23T06:14:09.252Z,16.80
2022-08-23T06:16:40.560Z,16.90
2022-08-23T06:19:09.382Z,16.90
2022-08-23T06:21:55.548Z,17.00
2022-08-23T06:24:26.951Z,17.00
2022-08-23T06:27:00.573Z,17.10
2022-08-23T06:29:27.813Z,17.10
2022-08-23T06:32:14.960Z,17.20
2022-08-23T06:35:33.078Z,17.30
2022-08-23T06:38:04.054Z,17.30
2022-08-23T06:40:48.771Z,17.40
2022-08-23T06:43:25.617Z,17.50
2022-08-23T06:46:14.994Z,17.50
2022-08-23T06:48:45.423Z,17.60
2022-08-23T06:51:18.651Z,17.60
2022-08-23T06:54:03.005Z,17.70
2022-08-23T06:56:43.863Z,17.70
2022-08-23T06:59:17.718Z,17.80
2022-08-23T07:02:09.335Z,17.80
2022-08-23T07:05:01.940Z,17.90
2022-08-23T07:07:39.823Z,18.00
2022-08-23T07:10:13.801Z,18.00
2022-08-23T07:12:44.816Z,18.10
2022-08-23T07:15:13.628Z,18.10
2022-08-23T07:17:43.888Z,18.20
2022-08-23T07:20:10.944Z,18.30
2022-08-23T07:22:40.588Z,18.30
2022-08-23T07:25:08.931Z,18.40
2022-08-23T07:27:38.517Z,18.40
2022-08-23T07:30:08.253Z,18.50
2022-08-23T07:32:37.674Z,18.50
2022-08-23T07:35:18.006Z,18.60
2022-08-23T07:37:45.679Z,18.70
2022-08-23T07:40:20.704Z,18.70
2022-08-23T07:42:50.934Z,18.80
2022-08-23T07:45:18.551Z,18.90
2022-08-23T07:47:50.854Z,19.00
2022-08-23T07:50:18.707Z,19.00
2022-08-23T07:52:46.379Z,19.10
2022-08-23T07:55:14.194Z,19.30
2022-08-23T07:57:58.533Z,19.40
2022-08-23T08:00:31.615Z,19.50
2022-08-23T08:03:17.295Z,19.50
2022-08-23T08:06:12.605Z,19.60
2022-08-23T08:08:41.306Z,19.60
2022-08-23T08:11:11.017Z,19.70
2022-08-23T08:13:40.042Z,19.70
2022-08-23T08:16:08.736Z,19.70
2022-08-23T08:18:39.362Z,19.70
2022-08-23T08:21:26.984Z,19.80
2022-08-23T08:24:00.199Z,19.80
2022-08-23T08:26:48.949Z,19.90
2022-08-23T08:29:17.075Z,20.00
2022-08-23T08:31:46.662Z,20.00
2022-08-23T08:34:13.938Z,20.10
2022-08-23T08:36:48.954Z,20.10
2022-08-23T08:39:24.293Z,20.10
2022-08-23T08:42:05.250Z,20.20
2022-08-23T08:44:54.259Z,20.40
2022-08-23T08:47:37.291Z,20.60
2022-08-23T08:50:26.555Z,20.70
2022-08-23T08:53:31.130Z,20.70
2022-08-23T08:56:16.506Z,20.70
2022-08-23T08:58:50.919Z,20.80
2022-08-23T09:01:20.886Z,20.80
2022-08-23T09:03:48.430Z,20.80
2022-08-23T09:06:36.579Z,20.80
2022-08-23T09:09:23.688Z,20.90
2022-08-23T09:12:08.569Z,20.90
2022-08-23T09:14:54.355Z,20.90
2022-08-23T09:17:44.016Z,20.90
2022-08-23T09:20:14.395Z,21.00
2022-08-23T09:22:48.473Z,21.00
2022-08-23T09:25:25.199Z,21.00
2022-08-23T09:28:02.644Z,21.10
2022-08-23T09:30:52.884Z,21.10
2022-08-23T09:33:46.887Z,21.10
2022-08-23T09:36:37.337Z,21.20
2022-08-23T09:39:24.317Z,21.30
2022-08-23T09:42:00.719Z,21.30
2022-08-23T09:44:37.260Z,21.40
2022-08-23T09:47:12.450Z,21.40
2022-08-23T09:49:48.307Z,21.40
2022-08-23T09:52:24.532Z,21.50
2022-08-23T09:55:04.473Z,21.50
2022-08-23T09:57:35.171Z,21.50
2022-08-23T10:00:28.918Z,21.50
2022-08-23T10:03:20.077Z,21.60
2022-08-23T10:05:52.091Z,21.60
2022-08-23T10:08:33.100Z,21.60
2022-08-23T10:11:13.694Z,21.70
2022-08-23T10:13:43.563Z,21.70
2022-08-23T10:16:41.662Z,21.80
2022-08-23T10:19:26.262Z,21.90
2022-08-23T10:22:23.603Z,22.00
2022-08-23T10:25:22.825Z,22.00
2022-08-23T10:28:39.431Z,22.00
2022-08-23T10:31:31.857Z,22.00
2022-08-23T10:34:34.148Z,22.10
2022-08-23T10:37:14.386Z,22.20
2022-08-23T10:40:02.989Z,22.30
2022-08-23T10:42:54.512Z,22.40
2022-08-23T10:45:37.917Z,22.30
2022-08-23T10:48:48.787Z,22.40
2022-08-23T10:51:32.058Z,22.50
2022-08-23T10:54:12.516Z,22.60
2022-08-23T10:56:50.254Z,22.60
2022-08-23T10:59:23.902Z,22.70
2022-08-23T11:02:03.903Z,22.80
2022-08-23T11:04:48.764Z,22.90
2022-08-23T11:07:30.923Z,22.90
2022-08-23T11:10:25.003Z,23.00
2022-08-23T11:13:03.872Z,23.00
2022-08-23T11:15:46.451Z,22.90
2022-08-23T11:18:33.771Z,23.00
2022-08-23T11:21:05.633Z,23.10
2022-08-23T11:24:15.512Z,23.10
2022-08-23T11:26:46.768Z,23.20
2022-08-23T11:29:23.345Z,23.30
2022-08-23T11:32:37.981Z,23.30
2022-08-23T11:35:32.882Z,23.30
2022-08-23T11:38:04.903Z,23.30
2022-08-23T11:40:51.330Z,23.40
2022-08-23T11:43:43.712Z,23.40
2022-08-23T11:46:25.796Z,23.50
2022-08-23T11:49:21.928Z,23.50
2022-08-23T11:52:16.879Z,23.50
2022-08-23T11:55:21.088Z,23.60
2022-08-23T11:57:56.900Z,23.60
2022-08-23T12:00:52.601Z,23.70
2022-08-23T12:03:50.492Z,23.80
2022-08-23T12:06:21.476Z,23.80
2022-08-23T12:08:55.713Z,23.90
2022-08-23T12:11:46.627Z,23.90
2022-08-23T12:14:31.980Z,23.90
2022-08-23T12:17:12.300Z,24.00
2022-08-23T12:19:57.689Z,24.00
2022-08-23T12:22:34.233Z,24.10
2022-08-23T12:25:04.934Z,24.10
2022-08-23T12:27:37.554Z,24.10
2022-08-23T12:30:20.285Z,24.20
2022-08-23T12:33:05.134Z,24.20
2022-08-23T12:35:53.539Z,24.20
2022-08-23T12:38:27.445Z,24.30
2022-08-23T12:40:56.699Z,24.30
2022-08-23T12:43:29.778Z,24.40
2022-08-23T12:45:58.805Z,24.40
2022-08-23T12:48:29.463Z,24.50
2022-08-23T12:51:10.583Z,24.50
2022-08-23T12:53:45.122Z,24.60
2022-08-23T12:56:18.541Z,24.60
2022-08-23T12:58:52.042Z,24.70
2022-08-23T13:01:22.820Z,24.70
2022-08-23T13:03:55.591Z,24.70
2022-08-23T13:06:29.893Z,24.70
2022-08-23T13:09:08.957Z,24.70
2022-08-23T13:11:37.731Z,24.80
2022-08-23T13:14:33.401Z,24.90
2022-08-23T13:17:18.266Z,24.90
2022-08-23T13:19:47.421Z,25.00
2022-08-23T13:22:24.746Z,25.00
2022-08-23T13:25:31.892Z,25.10
2022-08-23T13:28:27.043Z,25.10
2022-08-23T13:31:05.115Z,25.10
2022-08-23T13:33:32.109Z,25.10
2022-08-23T13:36:13.236Z,25.20
2022-08-23T13:38:42.142Z,25.20
2022-08-23T13:41:31.891Z,25.20
2022-08-23T13:44:07.941Z,25.30
2022-08-23T13:46:43.032Z,25.30
2022-08-23T13:49:14.553Z,25.30
2022-08-23T13:51:43.389Z,25.50
2022-08-23T13:54:12.702Z,25.60
2022-08-23T13:57:01.460Z,25.70
2022-08-23T13:59:32.197Z,25.80
2022-08-23T14:02:06.321Z,25.90
2022-08-23T14:04:33.288Z,26.00
2022-08-23T14:07:00.204Z,26.00
2022-08-23T14:09:27.986Z,26.00
2022-08-23T14:11:58.678Z,26.10
2022-08-23T14:14:27.379Z,26.10
2022-08-23T14:16:54.503Z,26.10
2022-08-23T14:22:08.086Z,26.40
2022-08-23T14:24:34.860Z,26.60
2022-08-23T14:27:01.919Z,26.70
2022-08-23T14:29:28.811Z,26.80
2022-08-23T14:31:58.058Z,26.90
2022-08-23T14:34:26.573Z,27.00
2022-08-23T14:39:40.299Z,27.40
2022-08-23T14:42:07.617Z,27.60
2022-08-23T14:44:36.454Z,27.70
2022-08-23T14:47:05.360Z,27.90
2022-08-23T14:49:32.677Z,28.00
2022-08-23T14:51:59.629Z,28.20
2022-08-23T14:54:26.612Z,28.40
2022-08-23T14:56:54.044Z,28.60
2022-08-23T14:59:21.209Z,28.60
2022-08-23T15:01:49.796Z,28.70
2022-08-23T15:04:19.851Z,28.80
2022-08-23T15:07:13.778Z,28.90
2022-08-23T15:09:33.988Z,29.00
2022-08-23T15:14:47.433Z,29.10
2022-08-23T15:17:14.599Z,29.20
2022-08-23T15:19:41.333Z,29.40
2022-08-23T15:22:21.615Z,29.50
2022-08-23T15:24:49.615Z,29.50
2022-08-23T15:27:18.484Z,29.40
2022-08-23T15:29:45.219Z,29.40
2022-08-23T15:32:12.569Z,29.40
2022-08-23T15:34:41.077Z,29.40
2022-08-23T15:37:13.875Z,29.50
2022-08-23T15:39:42.234Z,29.50
2022-08-23T15:42:09.264Z,29.50
2022-08-23T15:44:36.331Z,29.40
2022-08-23T15:47:05.768Z,29.30
2022-08-23T15:49:36.329Z,29.10
2022-08-23T15:52:04.333Z,28.80
2022-08-23T15:54:31.236Z,28.60
2022-08-23T15:56:58.051Z,28.40
2022-08-23T15:59:25.176Z,28.20
2022-08-23T16:01:52.078Z,28.00
2022-08-23T16:04:19.168Z,27.80
2022-08-23T16:06:46.845Z,27.70
2022-08-23T16:09:23.615Z,27.60
2022-08-23T16:11:51.511Z,27.50
2022-08-23T16:14:18.530Z,27.50
2022-08-23T16:16:48.363Z,27.40
2022-08-23T16:19:16.801Z,27.30
2022-08-23T16:21:44.064Z,27.30
2022-08-23T16:24:10.840Z,27.20
2022-08-23T16:26:41.829Z,27.00
2022-08-23T16:29:13.297Z,26.90
2022-08-23T16:31:41.645Z,26.80
2022-08-23T16:34:12.197Z,26.80
2022-08-23T16:36:42.082Z,26.70
2022-08-23T16:39:11.586Z,26.60
2022-08-23T16:41:38.541Z,26.60
2022-08-23T16:44:05.938Z,26.70
2022-08-23T16:46:32.851Z,26.80
2022-08-23T16:48:59.602Z,26.80
2022-08-23T16:51:26.726Z,26.90
2022-08-23T16:53:57.953Z,26.80
2022-08-23T16:56:34.007Z,26.90
2022-08-23T16:59:01.233Z,27.00
2022-08-23T17:01:28.512Z,27.10
2022-08-23T17:03:55.809Z,27.30
2022-08-23T17:06:22.806Z,27.40
2022-08-23T17:08:49.871Z,27.50
2022-08-23T17:11:19.283Z,27.50
2022-08-23T17:13:46.243Z,27.50
2022-08-23T17:16:13.202Z,27.50
2022-08-23T17:18:40.462Z,27.40
2022-08-23T17:21:09.043Z,27.30
2022-08-23T17:23:37.756Z,27.30
2022-08-23T17:26:09.317Z,27.20
2022-08-23T17:28:36.240Z,27.10
2022-08-23T17:31:02.946Z,27.00
2022-08-23T17:33:29.747Z,27.00
2022-08-23T17:35:56.515Z,26.90
2022-08-23T17:38:23.236Z,26.80
2022-08-23T17:40:50.126Z,26.80
2022-08-23T17:43:16.901Z,26.70
2022-08-23T17:45:48.790Z,26.60
2022-08-23T17:48:17.640Z,26.60
2022-08-23T17:50:46.070Z,26.50
2022-08-23T17:53:15.114Z,26.40
2022-08-23T17:55:42.600Z,26.30
2022-08-23T17:58:10.185Z,26.30
2022-08-23T18:00:39.077Z,26.20
2022-08-23T18:03:06.171Z,26.10
2022-08-23T18:05:34.562Z,26.00
2022-08-23T18:08:01.850Z,25.90
2022-08-23T18:10:29.941Z,25.80
2022-08-23T18:12:57.496Z,25.70
2022-08-23T18:15:24.570Z,25.60
2022-08-23T18:17:52.233Z,25.50
2022-08-23T18:20:25.345Z,25.40
2022-08-23T18:22:53.574Z,25.30
2022-08-23T18:25:20.307Z,25.20
2022-08-23T18:28:05.922Z,25.10
2022-08-23T18:30:34.730Z,25.00
2022-08-23T18:33:02.370Z,24.90
2022-08-23T18:35:30.599Z,24.80
2022-08-23T18:37:58.085Z,24.70
2022-08-23T18:40:27.419Z,24.60
2022-08-23T18:42:54.476Z,24.50
2022-08-23T18:45:21.804Z,24.40
2022-08-23T18:47:48.946Z,24.30
2022-08-23T18:50:16.480Z,24.30
2022-08-23T18:52:43.356Z,24.20
2022-08-23T18:55:10.214Z,24.10
2022-08-23T18:57:36.918Z,24.00
2022-08-23T19:00:05.352Z,24.00
2022-08-23T19:02:33.991Z,23.90
2022-08-23T19:05:02.886Z,23.90
2022-08-23T19:07:29.781Z,23.80
2022-08-23T19:09:56.514Z,23.70
2022-08-23T19:12:23.458Z,23.60
2022-08-23T19:14:50.190Z,23.60
2022-08-23T19:17:16.948Z,23.50
2022-08-23T19:19:43.703Z,23.50
2022-08-23T19:22:10.590Z,23.40
2022-08-23T19:24:37.351Z,23.40
2022-08-23T19:27:04.428Z,23.30
2022-08-23T19:29:31.884Z,23.20
2022-08-23T19:31:59.345Z,23.20
2022-08-23T19:34:26.820Z,23.10
2022-08-23T19:37:00.896Z,23.10
2022-08-23T19:39:29.199Z,23.00
2022-08-23T19:41:55.995Z,23.00
2022-08-23T19:44:23.441Z,22.90
2022-08-23T19:46:50.221Z,22.90
2022-08-23T19:49:17.183Z,22.80
2022-08-23T19:51:44.216Z,22.80
2022-08-23T19:54:12.606Z,22.70
2022-08-23T19:56:52.173Z,22.70
2022-08-23T19:59:23.058Z,22.60
2022-08-23T20:01:51.069Z,22.60
2022-08-23T20:04:19.260Z,22.50
2022-08-23T20:06:46.725Z,22.50
2022-08-23T20:09:13.470Z,22.40
2022-08-23T20:11:40.562Z,22.40
2022-08-23T20:14:08.157Z,22.30
2022-08-23T20:16:35.276Z,22.20
2022-08-23T20:19:02.693Z,22.20
2022-08-23T20:21:29.426Z,22.20
2022-08-23T20:24:03.340Z,22.10
2022-08-23T20:26:31.344Z,22.10
2022-08-23T20:29:00.282Z,22.00
2022-08-23T20:31:33.453Z,22.00
2022-08-23T20:34:00.614Z,21.90
2022-08-23T20:36:28.024Z,21.90
2022-08-23T20:38:59.986Z,21.80
2022-08-23T20:41:30.163Z,21.80
2022-08-23T20:43:57.586Z,21.80
2022-08-23T20:46:24.970Z,21.80
2022-08-23T20:48:52.949Z,21.70
2022-08-23T20:51:20.596Z,21.70
2022-08-23T20:53:47.845Z,21.70
2022-08-23T20:56:15.038Z,21.60
2022-08-23T20:58:42.549Z,21.60
2022-08-23T21:01:11.126Z,21.50
2022-08-23T21:03:38.857Z,21.50
2022-08-23T21:06:09.571Z,21.50
2022-08-23T21:08:37.491Z,21.40
2022-08-23T21:11:10.545Z,21.40
2022-08-23T21:13:41.152Z,21.30
2022-08-23T21:16:08.341Z,21.30
2022-08-23T21:18:35.060Z,21.30
2022-08-23T21:21:01.855Z,21.20
2022-08-23T21:23:28.641Z,21.20
2022-08-23T21:25:57.430Z,21.10
2022-08-23T21:28:25.509Z,21.10
2022-08-23T21:30:53.132Z,21.10
2022-08-23T21:33:21.863Z,21.10
2022-08-23T21:35:49.014Z,21.00
2022-08-23T21:38:15.761Z,20.90
2022-08-23T21:40:42.571Z,20.90
2022-08-23T21:43:09.349Z,20.90
2022-08-23T21:45:36.313Z,20.90
2022-08-23T21:48:08.341Z,20.80
2022-08-23T21:50:35.081Z,20.80
2022-08-23T21:53:02.323Z,20.80
2022-08-23T21:55:35.261Z,20.80
2022-08-23T21:58:03.948Z,20.80
2022-08-23T22:00:31.291Z,20.70
2022-08-23T22:02:58.723Z,20.70
2022-08-23T22:05:26.539Z,20.60
2022-08-23T22:07:54.179Z,20.60
2022-08-23T22:10:21.126Z,20.50
2022-08-23T22:12:48.431Z,20.50
2022-08-23T22:15:16.345Z,20.50
2022-08-23T22:17:43.277Z,20.50
2022-08-23T22:20:10.842Z,20.50
2022-08-23T22:22:37.738Z,20.40
2022-08-23T22:25:05.208Z,20.40
2022-08-23T22:27:32.892Z,20.40
2022-08-23T22:29:59.687Z,20.40
2022-08-23T22:32:26.629Z,20.40
2022-08-23T22:34:53.378Z,20.30
2022-08-23T22:37:20.083Z,20.20
2022-08-23T22:39:46.970Z,20.20
2022-08-23T22:42:13.873Z,20.20
2022-08-23T22:44:40.777Z,20.20
2022-08-23T22:47:07.637Z,20.20
2022-08-23T22:49:34.436Z,20.20
2022-08-23T22:52:01.551Z,20.10
2022-08-23T22:54:28.327Z,20.00
2022-08-23T22:56:55.160Z,20.00
2022-08-23T22:59:25.858Z,20.00
2022-08-23T23:01:59.214Z,20.00
2022-08-23T23:04:29.352Z,20.00
2022-08-23T23:06:56.917Z,19.90
2022-08-23T23:09:24.619Z,19.90
2022-08-23T23:11:52.138Z,19.90
2022-08-23T23:14:20.229Z,19.80
2022-08-23T23:16:49.356Z,19.80
2022-08-23T23:19:36.189Z,19.80
2022-08-23T23:22:04.018Z,19.80
2022-08-23T23:24:33.815Z,19.80
2022-08-23T23:27:01.028Z,19.80
2022-08-23T23:29:28.431Z,19.70
2022-08-23T23:31:55.877Z,19.80
2022-08-23T23:34:23.753Z,19.70
2022-08-23T23:36:55.798Z,19.70
2022-08-23T23:39:23.356Z,19.70
2022-08-23T23:41:50.605Z,19.70
2022-08-23T23:44:17.372Z,19.60
2022-08-23T23:46:56.344Z,19.60
2022-08-23T23:49:29.716Z,19.60
2022-08-23T23:52:00.850Z,19.60
2022-08-23T23:54:27.550Z,19.50
2022-08-23T23:56:54.560Z,19.40
2022-08-23T23:59:21.266Z,19.40
